createdAt,value
2023-11-12T00:00:03.078Z,98.9
2023-11-12T00:15:02.531Z,99.0
2023-11-12T00:30:02.961Z,99.1
2023-11-12T00:45:02.437Z,99.1
2023-11-12T01:00:02.864Z,99.2
2023-11-12T01:15:02.414Z,99.2
2023-11-12T01:30:02.789Z,99.3
2023-11-12T01:45:03.198Z,99.4
2023-11-12T02:00:02.729Z,99.4
2023-11-12T02:15:03.062Z,99.5
2023-11-12T02:30:02.427Z,99.6
2023-11-12T02:45:02.907Z,99.6
2023-11-12T03:00:02.445Z,99.7
2023-11-12T03:15:02.791Z,99.7
2023-11-12T03:30:02.451Z,99.7
2023-11-12T03:45:02.718Z,99.8
2023-11-12T04:00:03.148Z,99.8
2023-11-12T04:15:02.579Z,99.9
2023-11-12T04:30:03.052Z,99.9
2023-11-12T04:45:02.492Z,100.0
2023-11-12T05:00:02.895Z,100.0
2023-11-12T05:15:02.492Z,100.0
2023-11-12T05:45:03.420Z,100.0
2023-11-12T06:00:02.616Z,100.0
2023-11-12T06:15:03.070Z,100.0
2023-11-12T06:30:02.492Z,100.0
2023-11-12T06:45:02.964Z,100.0
2023-11-12T07:00:02.574Z,100.0
2023-11-12T07:15:02.815Z,100.0
2023-11-12T07:30:02.491Z,100.0
2023-11-12T07:45:10.072Z,100.0
2023-11-12T08:00:02.178Z,100.0
2023-11-12T08:15:02.621Z,100.0
2023-11-12T08:30:03.064Z,100.0
2023-11-12T08:45:02.512Z,99.9
2023-11-12T09:00:02.982Z,99.7
2023-11-12T09:15:02.508Z,99.9
2023-11-12T09:30:02.836Z,100.0
2023-11-12T09:45:02.478Z,99.9
2023-11-12T10:00:04.940Z,99.8
2023-11-12T10:15:03.143Z,99.9
2023-11-12T10:30:02.600Z,99.7
2023-11-12T10:45:03.043Z,99.8
2023-11-12T11:00:02.671Z,99.5
2023-11-12T11:15:02.931Z,99.6
2023-11-12T11:30:02.524Z,99.5
2023-11-12T11:45:02.786Z,99.4
2023-11-12T12:00:03.174Z,99.3
2023-11-12T12:15:02.650Z,99.3
2023-11-12T12:30:03.037Z,99.0
2023-11-12T12:45:02.550Z,98.8
2023-11-12T13:00:02.880Z,98.3
2023-11-12T13:15:02.543Z,97.8
2023-11-12T13:30:02.810Z,96.2
2023-11-12T13:45:03.245Z,93.7
2023-11-12T14:00:02.670Z,91.6
2023-11-12T14:15:03.109Z,88.6
2023-11-12T14:30:02.561Z,87.6
2023-11-12T14:45:02.988Z,87.1
2023-11-12T15:00:02.558Z,86.7
2023-11-12T15:15:02.862Z,86.3
2023-11-12T15:30:02.304Z,86.6
2023-11-12T15:45:02.752Z,86.8
2023-11-12T16:00:03.175Z,87.2
2023-11-12T16:15:02.592Z,87.2
2023-11-12T16:30:03.019Z,87.1
2023-11-12T16:45:02.569Z,87.1
2023-11-12T17:00:02.911Z,87.4
2023-11-12T17:15:02.481Z,87.9
2023-11-12T17:30:02.768Z,88.3
2023-11-12T17:45:03.222Z,88.3
2023-11-12T18:00:02.671Z,88.5
2023-11-12T18:15:03.104Z,89.3
2023-11-12T18:30:02.592Z,90.1
2023-11-12T18:45:03.024Z,90.3
2023-11-12T19:00:02.637Z,90.6
2023-11-12T19:15:02.875Z,91.0
2023-11-12T19:30:08.995Z,91.4
2023-11-12T19:45:02.749Z,91.7
2023-11-12T20:00:03.221Z,92.1
2023-11-12T20:15:02.698Z,92.7
2023-11-12T20:30:03.073Z,92.9
2023-11-12T20:45:02.616Z,93.2
2023-11-12T21:00:02.963Z,93.6
2023-11-12T21:15:02.650Z,94.0
2023-11-12T21:30:02.836Z,94.3
2023-11-12T21:45:02.257Z,94.5
2023-11-12T22:00:02.755Z,94.7
2023-11-12T22:15:03.125Z,95.0
2023-11-12T22:30:02.701Z,95.2
2023-11-12T22:45:02.995Z,95.4
2023-11-12T23:15:02.875Z,95.6
2023-11-12T23:30:02.304Z,95.8
2023-11-12T23:45:02.759Z,95.9
